createdAt,value
2023-04-13T00:00:10.942Z,99485.59
2023-04-13T00:02:39.347Z,99485.56
2023-04-13T00:05:09.287Z,99490.91
2023-04-13T00:07:39.222Z,99483.78
2023-04-13T00:10:08.707Z,99471.34
2023-04-13T00:12:40.983Z,99471.34
2023-04-13T00:15:09.767Z,99480.25
2023-04-13T00:17:38.002Z,99473.19
2023-04-13T00:20:08.926Z,99466.84
2023-04-13T00:22:38.147Z,99478.34
2023-04-13T00:25:06.716Z,99466.00
2023-04-13T00:27:34.499Z,99458.81
2023-04-13T00:30:07.433Z,99460.69
2023-04-13T00:32:35.662Z,99463.19
2023-04-13T00:35:03.726Z,99463.09
2023-04-13T00:37:32.702Z,99468.50
2023-04-13T00:40:00.773Z,99474.00
2023-04-13T00:42:28.524Z,99467.84
2023-04-13T00:44:56.625Z,99471.56
2023-04-13T00:47:28.781Z,99470.63
2023-04-13T00:49:58.239Z,99468.81
2023-04-13T00:52:25.999Z,99460.03
2023-04-13T00:54:56.249Z,99461.03
2023-04-13T00:57:25.821Z,99459.28
2023-04-13T00:59:53.650Z,99459.28
2023-04-13T01:02:23.069Z,99446.97
2023-04-13T01:04:54.720Z,99460.16
2023-04-13T01:07:29.136Z,99445.91
2023-04-13T01:10:01.701Z,99440.50
2023-04-13T01:12:35.555Z,99448.53
2023-04-13T01:15:08.804Z,99425.56
2023-04-13T01:17:39.666Z,99443.31
2023-04-13T01:20:12.635Z,99437.97
2023-04-13T01:22:45.724Z,99442.38
2023-04-13T01:25:28.529Z,99438.75
2023-04-13T01:28:02.109Z,99440.47
2023-04-13T01:30:31.549Z,99435.16
2023-04-13T01:33:02.265Z,99431.59
2023-04-13T01:35:31.653Z,99433.31
2023-04-13T01:37:59.822Z,99435.97
2023-04-13T01:40:29.294Z,99440.31
2023-04-13T01:42:58.803Z,99433.16
2023-04-13T01:45:28.514Z,99428.75
2023-04-13T01:48:04.655Z,99425.97
2023-04-13T01:50:35.966Z,99423.25
2023-04-13T01:53:08.336Z,99420.50
2023-04-13T01:55:38.526Z,99416.88
2023-04-13T01:58:10.331Z,99414.13
2023-04-13T02:00:38.777Z,99423.91
2023-04-13T02:03:08.248Z,99421.22
2023-04-13T02:05:37.380Z,99417.50
2023-04-13T02:08:06.512Z,99426.31
2023-04-13T02:10:35.365Z,99433.47
2023-04-13T02:13:04.115Z,99428.19
2023-04-13T02:15:35.993Z,99437.97
2023-04-13T02:18:04.660Z,99443.34
2023-04-13T02:20:38.718Z,99434.63
2023-04-13T02:23:08.311Z,99445.25
2023-04-13T02:25:37.752Z,99443.38
2023-04-13T02:28:05.911Z,99438.97
2023-04-13T02:30:35.104Z,99444.28
2023-04-13T02:33:02.997Z,99442.81
2023-04-13T02:35:30.914Z,99446.28
2023-04-13T02:37:59.054Z,99447.22
2023-04-13T02:40:28.418Z,99436.50
2023-04-13T02:42:57.340Z,99443.56
2023-04-13T02:45:25.296Z,99441.75
2023-04-13T02:47:54.464Z,99449.75
2023-04-13T02:50:22.597Z,99448.84
2023-04-13T02:52:50.355Z,99445.22
2023-04-13T02:55:18.186Z,99455.78
2023-04-13T02:57:45.990Z,99462.97
2023-04-13T03:00:16.179Z,99448.59
2023-04-13T03:02:44.824Z,99453.13
2023-04-13T03:05:14.857Z,99450.41
2023-04-13T03:07:42.542Z,99443.94
2023-04-13T03:10:11.414Z,99460.06
2023-04-13T03:12:39.668Z,99449.53
2023-04-13T03:15:11.115Z,99465.41
2023-04-13T03:17:41.448Z,99461.00
2023-04-13T03:20:12.821Z,99460.91
2023-04-13T03:22:42.140Z,99467.19
2023-04-13T03:25:10.328Z,99473.44
2023-04-13T03:27:38.223Z,99470.97
2023-04-13T03:30:07.497Z,99473.78
2023-04-13T03:32:36.566Z,99480.03
2023-04-13T03:35:04.573Z,99471.28
2023-04-13T03:37:40.095Z,99469.53
2023-04-13T03:40:11.215Z,99474.88
2023-04-13T03:42:39.481Z,99473.16
2023-04-13T03:45:07.858Z,99479.41
2023-04-13T03:47:36.119Z,99475.00
2023-04-13T03:50:04.055Z,99488.44
2023-04-13T03:52:32.040Z,99487.53
2023-04-13T03:54:59.885Z,99503.44
2023-04-13T03:57:29.581Z,99519.34
2023-04-13T03:59:57.537Z,99509.69
2023-04-13T04:02:25.557Z,99509.72
2023-04-13T04:04:54.051Z,99512.25
2023-04-13T04:07:23.766Z,99516.81
2023-04-13T04:09:51.577Z,99522.09
2023-04-13T04:12:19.355Z,99523.00
2023-04-13T04:14:48.562Z,99523.03
2023-04-13T04:17:16.353Z,99524.97
2023-04-13T04:19:44.171Z,99540.06
2023-04-13T04:22:14.008Z,99539.19
2023-04-13T04:24:42.385Z,99533.19
2023-04-13T04:27:10.193Z,99547.25
2023-04-13T04:29:38.200Z,99558.66
2023-04-13T04:32:11.008Z,99547.88
2023-04-13T04:34:40.896Z,99563.88
2023-04-13T04:37:19.762Z,99558.63
2023-04-13T04:39:48.792Z,99571.03
2023-04-13T04:42:18.789Z,99572.00
2023-04-13T04:44:49.733Z,99579.06
2023-04-13T04:47:19.533Z,99573.69
2023-04-13T04:49:47.242Z,99587.81
2023-04-13T04:52:15.003Z,99578.94
2023-04-13T04:54:42.882Z,99579.84
2023-04-13T04:57:12.372Z,99597.56
2023-04-13T04:59:40.915Z,99596.75
2023-04-13T05:02:09.194Z,99602.00
2023-04-13T05:04:40.155Z,99608.34
2023-04-13T05:07:08.994Z,99607.38
2023-04-13T05:09:38.779Z,99615.38
2023-04-13T05:12:07.551Z,99614.50
2023-04-13T05:14:35.746Z,99629.53
2023-04-13T05:17:04.243Z,99632.13
2023-04-13T05:19:35.077Z,99642.69
2023-04-13T05:22:04.920Z,99646.94
2023-04-13T05:24:33.624Z,99645.25
2023-04-13T05:27:01.546Z,99653.28
2023-04-13T05:29:29.490Z,99660.31
2023-04-13T05:32:00.019Z,99663.81
2023-04-13T05:34:28.461Z,99672.69
2023-04-13T05:36:58.029Z,99682.28
2023-04-13T05:39:27.530Z,99676.81
2023-04-13T05:41:56.009Z,99674.75
2023-04-13T05:44:23.816Z,99689.88
2023-04-13T05:46:51.639Z,99694.31
2023-04-13T05:49:19.474Z,99693.47
2023-04-13T05:51:47.770Z,99694.34
2023-04-13T05:54:17.431Z,99693.53
2023-04-13T05:56:47.348Z,99702.34
2023-04-13T05:59:18.427Z,99706.88
2023-04-13T06:01:46.301Z,99716.56
2023-04-13T06:04:15.890Z,99714.78
2023-04-13T06:06:44.968Z,99714.66
2023-04-13T06:09:13.293Z,99722.56
2023-04-13T06:11:41.729Z,99728.75
2023-04-13T06:14:10.896Z,99730.47
2023-04-13T06:16:38.748Z,99742.06
2023-04-13T06:19:06.579Z,99739.47
2023-04-13T06:21:34.542Z,99753.47
2023-04-13T06:24:02.370Z,99755.16
2023-04-13T06:26:30.567Z,99762.19
2023-04-13T06:28:58.609Z,99776.31
2023-04-13T06:31:28.447Z,99774.41
2023-04-13T06:33:56.870Z,99773.38
2023-04-13T06:36:24.811Z,99773.22
2023-04-13T06:38:53.120Z,99781.09
2023-04-13T06:41:21.023Z,99777.41
2023-04-13T06:43:48.806Z,99781.88
2023-04-13T06:46:17.753Z,99787.19
2023-04-13T06:48:49.833Z,99783.38
2023-04-13T06:51:17.672Z,99792.28
2023-04-13T06:53:45.514Z,99798.28
2023-04-13T06:56:13.362Z,99803.47
2023-04-13T06:58:41.146Z,99806.91
2023-04-13T07:01:09.326Z,99812.16
2023-04-13T07:03:37.528Z,99814.66
2023-04-13T07:06:08.587Z,99819.84
2023-04-13T07:08:37.022Z,99817.03
2023-04-13T07:11:04.961Z,99820.53
2023-04-13T07:13:32.786Z,99822.44
2023-04-13T07:16:00.681Z,99812.69
2023-04-13T07:18:28.475Z,99831.50
2023-04-13T07:20:56.843Z,99828.13
2023-04-13T07:23:25.985Z,99820.22
2023-04-13T07:25:54.139Z,99829.31
2023-04-13T07:28:21.876Z,99831.97
2023-04-13T07:30:49.633Z,99838.28
2023-04-13T07:33:17.545Z,99845.34
2023-04-13T07:35:45.415Z,99847.19
2023-04-13T07:38:13.154Z,99853.31
2023-04-13T07:40:42.386Z,99856.94
2023-04-13T07:43:10.064Z,99852.63
2023-04-13T07:45:38.054Z,99868.56
2023-04-13T07:48:06.773Z,99875.56
2023-04-13T07:50:35.312Z,99873.66
2023-04-13T07:53:03.128Z,99872.78
2023-04-13T07:55:30.893Z,99885.13
2023-04-13T07:58:00.668Z,99886.91
2023-04-13T08:00:28.502Z,99887.84
2023-04-13T08:02:56.654Z,99894.91
2023-04-13T08:05:24.631Z,99891.28
2023-04-13T08:07:52.973Z,99895.56
2023-04-13T08:10:20.922Z,99906.22
2023-04-13T08:12:48.631Z,99905.25
2023-04-13T08:15:17.940Z,99910.66
2023-04-13T08:17:46.765Z,99920.41
2023-04-13T08:20:15.980Z,99916.81
2023-04-13T08:22:45.573Z,99911.41
2023-04-13T08:25:13.690Z,99921.19
2023-04-13T08:27:41.425Z,99923.03
2023-04-13T08:30:11.675Z,99924.00
2023-04-13T08:32:41.139Z,99929.25
2023-04-13T08:35:10.398Z,99933.75
2023-04-13T08:37:39.844Z,99938.16
2023-04-13T08:40:11.967Z,99936.28
2023-04-13T08:42:40.007Z,99943.25
2023-04-13T08:45:09.183Z,99950.31
2023-04-13T08:47:37.496Z,99945.84
2023-04-13T08:50:07.736Z,99947.56
2023-04-13T08:52:36.996Z,99955.34
2023-04-13T08:55:06.252Z,99962.09
2023-04-13T08:57:35.700Z,99960.94
2023-04-13T09:00:10.331Z,99968.84
2023-04-13T09:02:46.659Z,99969.50
2023-04-13T09:05:30.778Z,99965.34
2023-04-13T09:08:03.718Z,99967.66
2023-04-13T09:10:31.513Z,99972.59
2023-04-13T09:12:59.569Z,99968.50
2023-04-13T09:15:27.453Z,99965.44
2023-04-13T09:17:56.214Z,99976.72
2023-04-13T09:20:24.816Z,99974.84
2023-04-13T09:22:53.967Z,99982.56
2023-04-13T09:25:23.605Z,99981.38
2023-04-13T09:27:52.914Z,99983.97
2023-04-13T09:30:22.301Z,99988.16
2023-04-13T09:33:04.006Z,99992.66
2023-04-13T09:35:32.361Z,99991.44
2023-04-13T09:38:01.834Z,99996.28
2023-04-13T09:40:30.799Z,100005.34
2023-04-13T09:43:00.685Z,99995.00
2023-04-13T09:45:35.680Z,100002.44
2023-04-13T09:48:03.965Z,100014.25
2023-04-13T09:50:33.924Z,100016.06
2023-04-13T09:53:04.472Z,100009.88
2023-04-13T09:55:33.949Z,100026.00
2023-04-13T09:58:10.361Z,100021.53
2023-04-13T10:00:39.075Z,100026.00
2023-04-13T10:03:11.865Z,100030.13
2023-04-13T10:05:55.402Z,100033.47
2023-04-13T10:08:37.390Z,100033.84
2023-04-13T10:11:11.722Z,100038.09
2023-04-13T10:13:45.963Z,100050.94
2023-04-13T10:16:44.521Z,100049.81
2023-04-13T10:19:13.755Z,100047.56
2023-04-13T10:21:45.482Z,100044.53
2023-04-13T10:24:15.157Z,100039.78
2023-04-13T10:26:44.978Z,100063.91
2023-04-13T10:29:14.797Z,100066.50
2023-04-13T10:31:46.782Z,100061.03
2023-04-13T10:34:24.477Z,100061.84
2023-04-13T10:36:55.126Z,100071.41
2023-04-13T10:39:29.182Z,100083.22
2023-04-13T10:42:01.414Z,100080.31
2023-04-13T10:44:29.737Z,100066.63
2023-04-13T10:46:59.128Z,100068.25
2023-04-13T10:49:36.031Z,100074.09
2023-04-13T10:52:03.817Z,100075.72
2023-04-13T10:54:35.884Z,100071.88
2023-04-13T10:57:06.587Z,100086.63
2023-04-13T10:59:56.378Z,100080.78
2023-04-13T11:02:27.243Z,100088.94
2023-04-13T11:04:55.628Z,100093.16
2023-04-13T11:07:26.079Z,100095.72
2023-04-13T11:10:02.742Z,100091.84
2023-04-13T11:12:31.374Z,100100.19
2023-04-13T11:14:59.227Z,100105.19
2023-04-13T11:17:27.089Z,100102.78
2023-04-13T11:19:57.601Z,100105.16
2023-04-13T11:22:27.932Z,100104.03
2023-04-13T11:25:09.293Z,100106.94
2023-04-13T11:27:38.088Z,100111.00
2023-04-13T11:30:08.488Z,100116.91
2023-04-13T11:32:39.336Z,100112.34
2023-04-13T11:35:09.123Z,100114.59
2023-04-13T11:37:37.820Z,100123.41
2023-04-13T11:40:20.259Z,100127.94
2023-04-13T11:42:49.225Z,100113.53
2023-04-13T11:45:19.052Z,100117.03
2023-04-13T11:47:48.707Z,100130.31
2023-04-13T11:50:17.602Z,100133.78
2023-04-13T11:52:46.499Z,100124.00
2023-04-13T11:55:23.722Z,100128.00
2023-04-13T11:57:52.883Z,100139.53
2023-04-13T12:00:24.453Z,100128.00
2023-04-13T12:03:01.966Z,100129.88
2023-04-13T12:05:33.158Z,100138.13
2023-04-13T12:08:04.842Z,100136.91
2023-04-13T12:10:41.363Z,100128.69
2023-04-13T12:16:04.972Z,100129.81
2023-04-13T12:18:37.271Z,100137.59
2023-04-13T12:21:06.505Z,100140.72
2023-04-13T12:23:34.415Z,100144.19
2023-04-13T12:26:25.937Z,100144.38
2023-04-13T12:31:25.453Z,100156.22
2023-04-13T12:33:53.214Z,100146.59
2023-04-13T12:36:21.071Z,100151.38
2023-04-13T12:38:48.932Z,100160.09
2023-04-13T12:41:18.106Z,100160.22
2023-04-13T12:43:45.849Z,100165.53
2023-04-13T12:46:13.570Z,100171.88
2023-04-13T12:48:41.334Z,100165.09
2023-04-13T12:51:09.122Z,100182.09
2023-04-13T12:53:37.310Z,100172.00
2023-04-13T12:56:05.445Z,100178.47
2023-04-13T12:58:35.557Z,100174.50
2023-04-13T13:01:04.107Z,100180.41
2023-04-13T13:03:31.993Z,100178.69
2023-04-13T13:05:59.774Z,100183.69
2023-04-13T13:08:27.547Z,100174.81
2023-04-13T13:10:55.457Z,100192.94
2023-04-13T13:13:23.338Z,100191.53
2023-04-13T13:15:52.887Z,100184.59
2023-04-13T13:18:20.799Z,100191.56
2023-04-13T13:20:49.346Z,100183.22
2023-04-13T13:23:17.155Z,100198.13
2023-04-13T13:25:52.745Z,100190.16
2023-04-13T13:28:32.199Z,100189.50
2023-04-13T13:31:01.788Z,100199.41
2023-04-13T13:33:29.751Z,100213.84
2023-04-13T13:35:57.718Z,100208.66
2023-04-13T13:38:25.800Z,100204.97
2023-04-13T13:40:53.696Z,100208.81
2023-04-13T13:43:22.347Z,100215.66
2023-04-13T13:45:50.279Z,100222.34
2023-04-13T13:48:21.911Z,100226.22
2023-04-13T13:50:50.186Z,100222.03
2023-04-13T13:53:18.048Z,100221.84
2023-04-13T13:55:46.712Z,100218.72
2023-04-13T13:58:14.574Z,100218.53
2023-04-13T14:00:42.438Z,100227.53
2023-04-13T14:03:12.626Z,100216.97
2023-04-13T14:05:44.349Z,100229.44
2023-04-13T14:08:12.195Z,100224.03
2023-04-13T14:10:40.324Z,100227.44
2023-04-13T14:13:08.199Z,100229.31
2023-04-13T14:15:36.097Z,100224.78
2023-04-13T14:18:10.605Z,100228.25
2023-04-13T14:20:41.563Z,100235.00
2023-04-13T14:23:10.139Z,100242.41
2023-04-13T14:25:38.945Z,100235.78
2023-04-13T14:28:09.037Z,100237.56
2023-04-13T14:30:37.144Z,100236.88
2023-04-13T14:33:05.847Z,100240.50
2023-04-13T14:35:34.038Z,100241.34
2023-04-13T14:38:03.304Z,100235.28
2023-04-13T14:40:32.004Z,100238.34
2023-04-13T14:42:59.863Z,100238.41
2023-04-13T14:45:28.792Z,100238.56
2023-04-13T14:47:56.817Z,100247.63
2023-04-13T14:50:24.918Z,100246.94
2023-04-13T14:52:52.912Z,100242.53
2023-04-13T14:55:22.920Z,100245.09
2023-04-13T14:57:50.980Z,100245.72
2023-04-13T15:00:22.465Z,100243.66
2023-04-13T15:02:52.765Z,100248.31
2023-04-13T15:05:21.817Z,100255.94
2023-04-13T15:07:50.874Z,100254.66
2023-04-13T15:10:19.289Z,100255.13
2023-04-13T15:12:49.199Z,100247.47
2023-04-13T15:15:17.487Z,100250.88
2023-04-13T15:17:48.222Z,100257.13
2023-04-13T15:20:16.151Z,100252.69
2023-04-13T15:22:44.351Z,100245.81
2023-04-13T15:25:12.387Z,100257.19
2023-04-13T15:27:40.449Z,100254.44
2023-04-13T15:30:11.228Z,100264.22
2023-04-13T15:32:40.943Z,100261.78
2023-04-13T15:35:09.447Z,100266.19
2023-04-13T15:37:38.041Z,100264.56
2023-04-13T15:40:08.151Z,100266.00
2023-04-13T15:42:36.484Z,100263.88
2023-04-13T15:45:05.468Z,100269.25
2023-04-13T15:47:35.022Z,100274.63
2023-04-13T15:50:04.196Z,100268.66
2023-04-13T15:52:32.639Z,100280.41
2023-04-13T15:55:00.653Z,100284.97
2023-04-13T15:57:28.718Z,100283.16
2023-04-13T15:59:57.654Z,100281.69
2023-04-13T16:02:26.229Z,100282.66
2023-04-13T16:04:55.958Z,100287.97
2023-04-13T16:07:24.125Z,100281.47
2023-04-13T16:09:56.489Z,100286.91
2023-04-13T16:12:26.562Z,100290.47
2023-04-13T16:14:56.135Z,100290.84
2023-04-13T16:17:31.645Z,100293.72
2023-04-13T16:20:18.356Z,100302.81
2023-04-13T16:22:49.256Z,100300.97
2023-04-13T16:25:19.306Z,100298.28
2023-04-13T16:27:50.834Z,100310.97
2023-04-13T16:30:20.878Z,100313.88
2023-04-13T16:32:55.035Z,100310.25
2023-04-13T16:35:26.020Z,100311.13
2023-04-13T16:37:56.810Z,100313.16
2023-04-13T16:40:24.833Z,100312.22
2023-04-13T16:42:53.245Z,100317.38
2023-04-13T16:45:21.686Z,100325.50
2023-04-13T16:47:50.127Z,100327.16
2023-04-13T16:50:18.084Z,100327.31
2023-04-13T16:52:47.852Z,100328.47
2023-04-13T16:55:15.843Z,100333.13
2023-04-13T16:57:44.758Z,100327.13
2023-04-13T17:00:14.911Z,100331.50
2023-04-13T17:02:43.826Z,100335.00
2023-04-13T17:05:14.007Z,100336.91
2023-04-13T17:07:43.977Z,100339.63
2023-04-13T17:10:15.001Z,100344.81
2023-04-13T17:12:43.873Z,100347.66
2023-04-13T17:15:12.475Z,100354.81
2023-04-13T17:17:40.503Z,100352.41
2023-04-13T17:20:10.187Z,100357.88
2023-04-13T17:22:38.686Z,100364.16
2023-04-13T17:25:08.579Z,100359.19
2023-04-13T17:27:38.374Z,100368.16
2023-04-13T17:30:10.309Z,100374.28
2023-04-13T17:32:38.475Z,100379.88
2023-04-13T17:35:07.360Z,100382.63
2023-04-13T17:37:35.387Z,100387.09
2023-04-13T17:40:04.216Z,100384.50
2023-04-13T17:42:32.213Z,100388.31
2023-04-13T17:45:01.794Z,100386.72
2023-04-13T17:47:29.745Z,100401.19
2023-04-13T17:50:00.106Z,100414.75
2023-04-13T17:52:29.525Z,100411.56
2023-04-13T17:54:57.593Z,100407.25
2023-04-13T17:57:25.829Z,100415.47
2023-04-13T17:59:56.094Z,100415.63
2023-04-13T18:02:25.941Z,100411.28
2023-04-13T18:04:58.133Z,100426.69
2023-04-13T18:07:26.794Z,100425.16
2023-04-13T18:09:55.115Z,100435.13
2023-04-13T18:12:23.323Z,100431.72
2023-04-13T18:14:51.218Z,100435.53
2023-04-13T18:17:21.684Z,100441.03
2023-04-13T18:19:54.702Z,100443.94
2023-04-13T18:22:31.182Z,100445.06
2023-04-13T18:25:04.402Z,100441.59
2023-04-13T18:27:32.166Z,100444.28
2023-04-13T18:30:15.451Z,100445.38
2023-04-13T18:32:43.301Z,100455.38
2023-04-13T18:35:13.464Z,100457.34
2023-04-13T18:37:41.247Z,100454.00
2023-04-13T18:40:10.947Z,100463.16
2023-04-13T18:42:42.916Z,100470.50
2023-04-13T18:45:11.598Z,100474.31
2023-04-13T18:47:39.881Z,100478.94
2023-04-13T18:50:09.130Z,100479.94
2023-04-13T18:52:38.473Z,100479.25
2023-04-13T18:55:07.410Z,100481.22
2023-04-13T18:57:38.174Z,100486.72
2023-04-13T19:00:07.592Z,100487.72
2023-04-13T19:02:35.936Z,100495.00
2023-04-13T19:05:04.474Z,100496.03
2023-04-13T19:07:32.649Z,100501.50
2023-04-13T19:10:02.154Z,100504.34
2023-04-13T19:12:32.083Z,100503.59
2023-04-13T19:15:00.077Z,100502.97
2023-04-13T19:17:28.742Z,100500.47
2023-04-13T19:20:03.743Z,100514.88
2023-04-13T19:22:31.675Z,100514.09
2023-04-13T19:25:03.863Z,100511.56
2023-04-13T19:27:32.368Z,100508.97
2023-04-13T19:30:00.695Z,100510.91
2023-04-13T19:32:30.456Z,100516.34
2023-04-13T19:34:58.479Z,100511.94
2023-04-13T19:37:28.395Z,100517.38
2023-04-13T19:39:56.382Z,100529.94
2023-04-13T19:42:26.562Z,100531.88
2023-04-13T19:44:59.864Z,100529.25
2023-04-13T19:47:30.290Z,100541.81
2023-04-13T19:49:58.749Z,100543.59
2023-04-13T19:52:26.951Z,100550.84
2023-04-13T19:54:54.958Z,100549.16
2023-04-13T19:57:22.963Z,100558.16
2023-04-13T19:59:52.715Z,100553.66
2023-04-13T20:02:21.099Z,100553.63
2023-04-13T20:04:50.248Z,100553.63
2023-04-13T20:07:18.482Z,100558.09
2023-04-13T20:09:47.055Z,100559.94
2023-04-13T20:12:15.055Z,100564.41
2023-04-13T20:14:45.838Z,100553.75
2023-04-13T20:17:16.333Z,100560.88
2023-04-13T20:19:44.749Z,100571.53
2023-04-13T20:22:13.491Z,100567.03
2023-04-13T20:24:41.521Z,100571.53
2023-04-13T20:27:12.350Z,100575.09
2023-04-13T20:29:40.362Z,100581.34
2023-04-13T20:32:08.317Z,100585.81
2023-04-13T20:34:38.206Z,100584.13
2023-04-13T20:37:10.375Z,100585.00
2023-04-13T20:39:49.850Z,100585.94
2023-04-13T20:42:19.410Z,100603.75
2023-04-13T20:44:49.226Z,100601.16
2023-04-13T20:47:17.493Z,100596.72
2023-04-13T20:49:52.393Z,100603.00
2023-04-13T20:52:20.495Z,100605.72
2023-04-13T20:54:48.482Z,100612.06
2023-04-13T20:57:17.215Z,100617.41
2023-04-13T20:59:45.277Z,100615.63
2023-04-13T21:02:14.520Z,100615.72
2023-04-13T21:04:42.753Z,100618.38
2023-04-13T21:07:12.241Z,100612.16
2023-04-13T21:09:40.060Z,100615.78
2023-04-13T21:12:10.969Z,100625.69
2023-04-13T21:14:38.725Z,100619.44
2023-04-13T21:17:06.635Z,100624.81
2023-04-13T21:19:36.875Z,100626.63
2023-04-13T21:22:05.564Z,100631.94
2023-04-13T21:24:34.831Z,100621.28
2023-04-13T21:27:02.893Z,100622.22
2023-04-13T21:29:30.773Z,100624.91
2023-04-13T21:31:59.003Z,100629.44
2023-04-13T21:34:27.245Z,100628.56
2023-04-13T21:36:55.479Z,100627.72
2023-04-13T21:39:23.457Z,100633.09
2023-04-13T21:41:52.656Z,100630.47
2023-04-13T21:44:29.301Z,100632.25
2023-04-13T21:46:58.446Z,100624.28
2023-04-13T21:49:26.401Z,100625.16
2023-04-13T21:51:54.194Z,100633.16
2023-04-13T21:54:22.070Z,100634.06
2023-04-13T21:56:50.154Z,100631.41
2023-04-13T21:59:19.337Z,100634.94
2023-04-13T22:01:47.342Z,100642.97
2023-04-13T22:04:15.382Z,100640.31
2023-04-13T22:06:43.276Z,100645.66
2023-04-13T22:09:12.294Z,100656.38
2023-04-13T22:11:41.035Z,100654.59
2023-04-13T22:14:08.920Z,100654.56
2023-04-13T22:16:38.303Z,100657.25
2023-04-13T22:19:06.218Z,100660.75
2023-04-13T22:21:36.755Z,100661.63
2023-04-13T22:24:04.849Z,100661.59
2023-04-13T22:26:32.570Z,100653.56
2023-04-13T22:29:00.522Z,100658.00
2023-04-13T22:31:28.532Z,100659.75
2023-04-13T22:33:57.809Z,100657.06
2023-04-13T22:36:25.561Z,100672.19
2023-04-13T22:38:54.749Z,100663.31
2023-04-13T22:41:22.728Z,100671.31
2023-04-13T22:43:50.556Z,100670.44
2023-04-13T22:46:18.570Z,100666.03
2023-04-13T22:48:46.568Z,100666.03
2023-04-13T22:51:16.367Z,100672.28
2023-04-13T22:53:44.274Z,100665.19
2023-04-13T22:56:12.116Z,100669.66
2023-04-13T22:58:39.926Z,100674.16
2023-04-13T23:01:07.665Z,100672.38
2023-04-13T23:03:35.972Z,100677.72
2023-04-13T23:06:05.506Z,100675.09
2023-04-13T23:08:34.767Z,100672.44
2023-04-13T23:11:08.690Z,100674.22
2023-04-13T23:13:36.893Z,100681.38
2023-04-13T23:18:57.025Z,100676.97
2023-04-13T23:21:24.773Z,100674.31
2023-04-13T23:23:54.090Z,100675.22
2023-04-13T23:26:21.928Z,100676.16
2023-04-13T23:28:49.772Z,100667.28
2023-04-13T23:31:17.612Z,100671.75
2023-04-13T23:33:45.546Z,100662.88
2023-04-13T23:36:13.535Z,100657.53
2023-04-13T23:38:41.241Z,100670.88
2023-04-13T23:41:10.468Z,100680.66
2023-04-13T23:43:38.240Z,100683.34
2023-04-13T23:46:06.119Z,100674.44
2023-04-13T23:48:33.920Z,100689.59
2023-04-13T23:51:01.714Z,100684.25
2023-04-13T23:53:29.455Z,100689.59
2023-04-13T23:55:57.250Z,100692.28
2023-04-13T23:58:26.489Z,100696.72
